sensor_id;sensor_type;location;lat;lon;timestamp;temperature;humidity
66337;SHT30;53139;45.576;5.304;2022-08-30T00:00:42;24.80;65.31
66337;SHT30;53139;45.576;5.304;2022-08-30T00:04:04;24.68;66.25
66337;SHT30;53139;45.576;5.304;2022-08-30T00:07:09;24.66;65.98
66337;SHT30;53139;45.576;5.304;2022-08-30T00:10:11;24.68;66.47
66337;SHT30;53139;45.576;5.304;2022-08-30T00:13:14;24.56;66.88
66337;SHT30;53139;45.576;5.304;2022-08-30T00:16:20;24.52;66.95
66337;SHT30;53139;45.576;5.304;2022-08-30T00:19:23;24.44;67.05
66337;SHT30;53139;45.576;5.304;2022-08-30T00:22:26;24.37;67.65
66337;SHT30;53139;45.576;5.304;2022-08-30T00:25:28;24.42;67.10
66337;SHT30;53139;45.576;5.304;2022-08-30T00:28:31;24.32;67.43
66337;SHT30;53139;45.576;5.304;2022-08-30T00:31:35;24.35;66.74
66337;SHT30;53139;45.576;5.304;2022-08-30T00:34:37;24.27;66.21
66337;SHT30;53139;45.576;5.304;2022-08-30T00:37:40;24.25;66.16
66337;SHT30;53139;45.576;5.304;2022-08-30T00:40:44;24.32;65.13
66337;SHT30;53139;45.576;5.304;2022-08-30T00:43:47;24.24;65.08
66337;SHT30;53139;45.576;5.304;2022-08-30T00:46:49;24.35;64.46
66337;SHT30;53139;45.576;5.304;2022-08-30T00:49:54;24.28;64.38
66337;SHT30;53139;45.576;5.304;2022-08-30T00:52:59;24.35;64.10
66337;SHT30;53139;45.576;5.304;2022-08-30T00:56:03;24.24;64.45
66337;SHT30;53139;45.576;5.304;2022-08-30T00:59:07;24.32;63.96
66337;SHT30;53139;45.576;5.304;2022-08-30T01:02:10;24.29;63.83
66337;SHT30;53139;45.576;5.304;2022-08-30T01:05:13;24.31;63.67
66337;SHT30;53139;45.576;5.304;2022-08-30T01:08:18;24.34;63.66
66337;SHT30;53139;45.576;5.304;2022-08-30T01:11:22;24.32;63.65
66337;SHT30;53139;45.576;5.304;2022-08-30T01:14:26;24.22;64.11
66337;SHT30;53139;45.576;5.304;2022-08-30T01:17:29;24.17;64.36
66337;SHT30;53139;45.576;5.304;2022-08-30T01:20:42;23.94;65.37
66337;SHT30;53139;45.576;5.304;2022-08-30T01:23:49;23.92;65.05
66337;SHT30;53139;45.576;5.304;2022-08-30T01:26:55;23.66;66.81
66337;SHT30;53139;45.576;5.304;2022-08-30T01:29:58;23.72;66.72
66337;SHT30;53139;45.576;5.304;2022-08-30T01:33:02;23.72;66.81
66337;SHT30;53139;45.576;5.304;2022-08-30T01:36:08;23.70;66.79
66337;SHT30;53139;45.576;5.304;2022-08-30T01:39:14;23.66;67.26
66337;SHT30;53139;45.576;5.304;2022-08-30T01:42:17;23.66;67.40
66337;SHT30;53139;45.576;5.304;2022-08-30T01:45:19;23.66;67.53
66337;SHT30;53139;45.576;5.304;2022-08-30T01:48:22;23.70;67.68
66337;SHT30;53139;45.576;5.304;2022-08-30T01:51:27;23.69;67.81
66337;SHT30;53139;45.576;5.304;2022-08-30T01:54:31;23.72;67.72
66337;SHT30;53139;45.576;5.304;2022-08-30T01:57:34;23.62;67.74
66337;SHT30;53139;45.576;5.304;2022-08-30T02:00:36;23.72;67.40
66337;SHT30;53139;45.576;5.304;2022-08-30T02:03:41;23.62;68.19
66337;SHT30;53139;45.576;5.304;2022-08-30T02:06:44;23.59;68.21
66337;SHT30;53139;45.576;5.304;2022-08-30T02:09:47;23.66;67.90
66337;SHT30;53139;45.576;5.304;2022-08-30T02:12:50;23.52;68.25
66337;SHT30;53139;45.576;5.304;2022-08-30T02:15:52;23.49;67.81
66337;SHT30;53139;45.576;5.304;2022-08-30T02:18:55;23.42;68.19
66337;SHT30;53139;45.576;5.304;2022-08-30T02:21:58;23.31;67.92
66337;SHT30;53139;45.576;5.304;2022-08-30T02:25:01;23.11;68.65
66337;SHT30;53139;45.576;5.304;2022-08-30T02:28:04;23.06;69.87
66337;SHT30;53139;45.576;5.304;2022-08-30T02:31:07;23.08;69.86
66337;SHT30;53139;45.576;5.304;2022-08-30T02:34:09;23.15;69.97
66337;SHT30;53139;45.576;5.304;2022-08-30T02:37:12;23.15;69.63
66337;SHT30;53139;45.576;5.304;2022-08-30T02:40:15;22.97;70.32
66337;SHT30;53139;45.576;5.304;2022-08-30T02:43:19;22.97;69.69
66337;SHT30;53139;45.576;5.304;2022-08-30T02:46:21;22.74;71.15
66337;SHT30;53139;45.576;5.304;2022-08-30T02:49:22;22.72;70.26
66337;SHT30;53139;45.576;5.304;2022-08-30T02:52:24;22.65;70.60
66337;SHT30;53139;45.576;5.304;2022-08-30T02:55:26;22.34;72.81
66337;SHT30;53139;45.576;5.304;2022-08-30T02:58:29;22.10;73.96
66337;SHT30;53139;45.576;5.304;2022-08-30T03:01:32;22.14;74.03
66337;SHT30;53139;45.576;5.304;2022-08-30T03:04:37;22.12;74.08
66337;SHT30;53139;45.576;5.304;2022-08-30T03:07:41;22.25;72.88
66337;SHT30;53139;45.576;5.304;2022-08-30T03:10:44;22.32;71.96
66337;SHT30;53139;45.576;5.304;2022-08-30T03:13:47;22.22;71.41
66337;SHT30;53139;45.576;5.304;2022-08-30T03:16:49;21.67;74.93
66337;SHT30;53139;45.576;5.304;2022-08-30T03:19:52;21.86;74.82
66337;SHT30;53139;45.576;5.304;2022-08-30T03:22:55;21.57;75.24
66337;SHT30;53139;45.576;5.304;2022-08-30T03:25:57;21.79;74.00
66337;SHT30;53139;45.576;5.304;2022-08-30T03:29:00;21.91;73.78
66337;SHT30;53139;45.576;5.304;2022-08-30T03:32:05;21.84;73.58
66337;SHT30;53139;45.576;5.304;2022-08-30T03:35:07;22.04;72.13
66337;SHT30;53139;45.576;5.304;2022-08-30T03:38:10;21.53;75.88
66337;SHT30;53139;45.576;5.304;2022-08-30T03:41:13;21.90;74.27
66337;SHT30;53139;45.576;5.304;2022-08-30T03:44:17;21.65;75.80
66337;SHT30;53139;45.576;5.304;2022-08-30T03:47:20;21.76;75.36
66337;SHT30;53139;45.576;5.304;2022-08-30T03:50:22;22.05;74.21
66337;SHT30;53139;45.576;5.304;2022-08-30T03:53:25;21.94;74.56
66337;SHT30;53139;45.576;5.304;2022-08-30T03:56:27;21.86;74.49
66337;SHT30;53139;45.576;5.304;2022-08-30T03:59:30;21.65;75.63
66337;SHT30;53139;45.576;5.304;2022-08-30T04:02:32;21.48;76.45
66337;SHT30;53139;45.576;5.304;2022-08-30T04:05:35;21.36;76.73
66337;SHT30;53139;45.576;5.304;2022-08-30T04:08:37;21.52;76.02
66337;SHT30;53139;45.576;5.304;2022-08-30T04:11:40;21.45;76.23
66337;SHT30;53139;45.576;5.304;2022-08-30T04:14:42;21.69;74.76
66337;SHT30;53139;45.576;5.304;2022-08-30T04:17:45;21.70;74.87
66337;SHT30;53139;45.576;5.304;2022-08-30T04:20:50;21.66;75.14
66337;SHT30;53139;45.576;5.304;2022-08-30T04:23:53;21.62;75.36
66337;SHT30;53139;45.576;5.304;2022-08-30T04:26:55;21.67;75.16
66337;SHT30;53139;45.576;5.304;2022-08-30T04:29:58;21.60;75.85
66337;SHT30;53139;45.576;5.304;2022-08-30T04:33:01;21.65;75.61
66337;SHT30;53139;45.576;5.304;2022-08-30T04:36:04;21.65;75.67
66337;SHT30;53139;45.576;5.304;2022-08-30T04:39:07;21.70;75.66
66337;SHT30;53139;45.576;5.304;2022-08-30T04:42:10;21.60;76.21
66337;SHT30;53139;45.576;5.304;2022-08-30T04:45:14;21.53;76.76
66337;SHT30;53139;45.576;5.304;2022-08-30T04:48:17;21.72;75.11
66337;SHT30;53139;45.576;5.304;2022-08-30T04:51:20;21.72;75.83
66337;SHT30;53139;45.576;5.304;2022-08-30T04:54:23;21.89;75.07
66337;SHT30;53139;45.576;5.304;2022-08-30T04:57:26;21.66;76.30
66337;SHT30;53139;45.576;5.304;2022-08-30T05:00:29;21.80;75.49
66337;SHT30;53139;45.576;5.304;2022-08-30T05:03:32;21.60;76.97
66337;SHT30;53139;45.576;5.304;2022-08-30T05:06:35;21.86;74.41
66337;SHT30;53139;45.576;5.304;2022-08-30T05:09:35;21.65;76.56
66337;SHT30;53139;45.576;5.304;2022-08-30T05:12:40;21.72;76.01
66337;SHT30;53139;45.576;5.304;2022-08-30T05:15:43;21.57;77.24
66337;SHT30;53139;45.576;5.304;2022-08-30T05:18:47;21.73;75.63
66337;SHT30;53139;45.576;5.304;2022-08-30T05:21:50;21.76;75.59
66337;SHT30;53139;45.576;5.304;2022-08-30T05:24:52;21.80;76.20
66337;SHT30;53139;45.576;5.304;2022-08-30T05:27:55;21.84;75.73
66337;SHT30;53139;45.576;5.304;2022-08-30T05:30:58;21.83;76.40
66337;SHT30;53139;45.576;5.304;2022-08-30T05:34:01;21.91;76.05
66337;SHT30;53139;45.576;5.304;2022-08-30T05:37:04;21.93;76.16
66337;SHT30;53139;45.576;5.304;2022-08-30T05:40:06;22.04;75.96
66337;SHT30;53139;45.576;5.304;2022-08-30T05:43:09;21.93;76.31
66337;SHT30;53139;45.576;5.304;2022-08-30T05:46:13;22.02;75.96
66337;SHT30;53139;45.576;5.304;2022-08-30T05:49:18;21.91;76.64
66337;SHT30;53139;45.576;5.304;2022-08-30T05:52:19;21.90;76.81
66337;SHT30;53139;45.576;5.304;2022-08-30T05:55:21;22.15;75.66
66337;SHT30;53139;45.576;5.304;2022-08-30T05:58:22;22.22;75.68
66337;SHT30;53139;45.576;5.304;2022-08-30T06:01:29;22.12;75.85
66337;SHT30;53139;45.576;5.304;2022-08-30T06:04:30;22.14;76.29
66337;SHT30;53139;45.576;5.304;2022-08-30T06:07:32;22.37;75.08
66337;SHT30;53139;45.576;5.304;2022-08-30T06:10:33;22.39;74.91
66337;SHT30;53139;45.576;5.304;2022-08-30T06:13:34;22.11;76.50
66337;SHT30;53139;45.576;5.304;2022-08-30T06:16:37;22.38;75.33
66337;SHT30;53139;45.576;5.304;2022-08-30T06:19:40;22.17;76.64
66337;SHT30;53139;45.576;5.304;2022-08-30T06:22:40;22.28;75.87
66337;SHT30;53139;45.576;5.304;2022-08-30T06:25:41;22.42;75.28
66337;SHT30;53139;45.576;5.304;2022-08-30T06:28:43;22.59;74.94
66337;SHT30;53139;45.576;5.304;2022-08-30T06:31:45;22.57;74.89
66337;SHT30;53139;45.576;5.304;2022-08-30T06:34:46;22.55;75.05
66337;SHT30;53139;45.576;5.304;2022-08-30T06:37:47;22.57;74.76
66337;SHT30;53139;45.576;5.304;2022-08-30T06:40:48;22.77;74.62
66337;SHT30;53139;45.576;5.304;2022-08-30T06:43:50;22.74;74.71
66337;SHT30;53139;45.576;5.304;2022-08-30T06:46:51;22.82;74.29
66337;SHT30;53139;45.576;5.304;2022-08-30T06:49:52;23.01;73.39
66337;SHT30;53139;45.576;5.304;2022-08-30T06:52:53;23.04;74.36
66337;SHT30;53139;45.576;5.304;2022-08-30T06:55:56;22.90;74.72
66337;SHT30;53139;45.576;5.304;2022-08-30T06:58:56;23.00;74.23
66337;SHT30;53139;45.576;5.304;2022-08-30T07:01:58;23.49;72.11
66337;SHT30;53139;45.576;5.304;2022-08-30T07:04:59;23.03;73.84
66337;SHT30;53139;45.576;5.304;2022-08-30T07:08:01;23.38;72.79
66337;SHT30;53139;45.576;5.304;2022-08-30T07:11:05;23.41;72.26
66337;SHT30;53139;45.576;5.304;2022-08-30T07:14:07;23.46;72.37
66337;SHT30;53139;45.576;5.304;2022-08-30T07:20:28;23.41;73.28
66337;SHT30;53139;45.576;5.304;2022-08-30T07:23:29;23.46;73.39
66337;SHT30;53139;45.576;5.304;2022-08-30T07:26:36;23.55;73.43
66337;SHT30;53139;45.576;5.304;2022-08-30T07:29:37;23.62;73.17
66337;SHT30;53139;45.576;5.304;2022-08-30T07:32:38;23.51;74.08
66337;SHT30;53139;45.576;5.304;2022-08-30T07:35:39;23.46;73.37
66337;SHT30;53139;45.576;5.304;2022-08-30T07:38:40;23.76;72.29
66337;SHT30;53139;45.576;5.304;2022-08-30T07:41:41;23.73;73.24
66337;SHT30;53139;45.576;5.304;2022-08-30T07:44:43;23.93;73.00
66337;SHT30;53139;45.576;5.304;2022-08-30T07:47:44;24.00;72.06
66337;SHT30;53139;45.576;5.304;2022-08-30T07:50:46;24.17;72.08
66337;SHT30;53139;45.576;5.304;2022-08-30T07:53:48;24.31;71.76
66337;SHT30;53139;45.576;5.304;2022-08-30T07:56:49;24.48;71.60
66337;SHT30;53139;45.576;5.304;2022-08-30T07:59:51;24.45;71.16
66337;SHT30;53139;45.576;5.304;2022-08-30T08:02:52;24.75;70.84
66337;SHT30;53139;45.576;5.304;2022-08-30T08:05:53;25.17;70.25
66337;SHT30;53139;45.576;5.304;2022-08-30T08:08:57;25.72;68.57
66337;SHT30;53139;45.576;5.304;2022-08-30T08:12:04;26.12;67.70
66337;SHT30;53139;45.576;5.304;2022-08-30T08:15:08;25.82;66.84
66337;SHT30;53139;45.576;5.304;2022-08-30T08:18:08;25.75;66.85
66337;SHT30;53139;45.576;5.304;2022-08-30T08:21:09;25.99;67.07
66337;SHT30;53139;45.576;5.304;2022-08-30T08:24:12;26.27;66.50
66337;SHT30;53139;45.576;5.304;2022-08-30T08:27:15;26.16;65.27
66337;SHT30;53139;45.576;5.304;2022-08-30T08:30:19;26.58;65.68
66337;SHT30;53139;45.576;5.304;2022-08-30T08:33:22;27.17;63.73
66337;SHT30;53139;45.576;5.304;2022-08-30T08:36:25;27.22;63.87
66337;SHT30;53139;45.576;5.304;2022-08-30T08:39:28;28.10;61.36
66337;SHT30;53139;45.576;5.304;2022-08-30T08:49:35;27.11;57.00
66337;SHT30;53139;45.576;5.304;2022-08-30T08:52:47;27.09;57.43
66337;SHT30;53139;45.576;5.304;2022-08-30T08:56:12;27.62;57.40
66337;SHT30;53139;45.576;5.304;2022-08-30T08:59:16;27.89;57.78
66337;SHT30;53139;45.576;5.304;2022-08-30T09:02:26;27.29;58.98
66337;SHT30;53139;45.576;5.304;2022-08-30T09:05:37;26.88;59.51
66337;SHT30;53139;45.576;5.304;2022-08-30T09:08:40;27.10;58.34
66337;SHT30;53139;45.576;5.304;2022-08-30T09:11:46;27.46;58.20
66337;SHT30;53139;45.576;5.304;2022-08-30T09:14:55;27.00;57.94
66337;SHT30;53139;45.576;5.304;2022-08-30T09:18:02;27.31;57.54
66337;SHT30;53139;45.576;5.304;2022-08-30T09:21:07;27.57;56.97
66337;SHT30;53139;45.576;5.304;2022-08-30T09:24:14;27.59;56.58
66337;SHT30;53139;45.576;5.304;2022-08-30T09:30:30;27.23;58.23
66337;SHT30;53139;45.576;5.304;2022-08-30T09:33:33;27.68;58.07
66337;SHT30;53139;45.576;5.304;2022-08-30T09:36:44;27.54;57.77
66337;SHT30;53139;45.576;5.304;2022-08-30T09:39:47;27.88;57.57
66337;SHT30;53139;45.576;5.304;2022-08-30T09:46:09;28.41;56.40
66337;SHT30;53139;45.576;5.304;2022-08-30T09:53:14;28.57;54.09
66337;SHT30;53139;45.576;5.304;2022-08-30T09:57:06;28.65;55.55
66337;SHT30;53139;45.576;5.304;2022-08-30T10:09:49;28.48;56.48
66337;SHT30;53139;45.576;5.304;2022-08-30T10:19:59;28.24;57.00
66337;SHT30;53139;45.576;5.304;2022-08-30T10:23:30;27.95;57.11
66337;SHT30;53139;45.576;5.304;2022-08-30T10:26:37;27.77;58.51
66337;SHT30;53139;45.576;5.304;2022-08-30T10:29:47;27.44;58.42
66337;SHT30;53139;45.576;5.304;2022-08-30T10:33:00;27.30;58.66
66337;SHT30;53139;45.576;5.304;2022-08-30T10:36:09;27.38;58.63
66337;SHT30;53139;45.576;5.304;2022-08-30T10:39:17;27.37;58.71
66337;SHT30;53139;45.576;5.304;2022-08-30T10:42:31;26.62;64.29
66337;SHT30;53139;45.576;5.304;2022-08-30T10:45:36;25.45;72.13
66337;SHT30;53139;45.576;5.304;2022-08-30T10:48:43;24.68;74.84
66337;SHT30;53139;45.576;5.304;2022-08-30T10:52:40;23.99;76.70
66337;SHT30;53139;45.576;5.304;2022-08-30T10:55:35;22.99;76.80
66337;SHT30;53139;45.576;5.304;2022-08-30T10:58:54;22.41;72.06
66337;SHT30;53139;45.576;5.304;2022-08-30T11:12:27;21.97;77.23
66337;SHT30;53139;45.576;5.304;2022-08-30T11:18:58;22.10;75.83
66337;SHT30;53139;45.576;5.304;2022-08-30T11:22:14;22.07;77.69
66337;SHT30;53139;45.576;5.304;2022-08-30T11:29:01;21.89;78.41
66337;SHT30;53139;45.576;5.304;2022-08-30T11:41:45;22.07;74.46
66337;SHT30;53139;45.576;5.304;2022-08-30T11:44:48;22.00;75.48
66337;SHT30;53139;45.576;5.304;2022-08-30T11:51:12;22.15;74.65
66337;SHT30;53139;45.576;5.304;2022-08-30T12:04:44;25.48;65.79
66337;SHT30;53139;45.576;5.304;2022-08-30T12:08:00;26.51;65.98
66337;SHT30;53139;45.576;5.304;2022-08-30T12:17:56;28.82;60.75
66337;SHT30;53139;45.576;5.304;2022-08-30T12:27:31;30.96;57.66
66337;SHT30;53139;45.576;5.304;2022-08-30T12:30:32;31.97;56.58
66337;SHT30;53139;45.576;5.304;2022-08-30T12:33:44;31.09;57.57
66337;SHT30;53139;45.576;5.304;2022-08-30T12:36:55;31.76;57.09
66337;SHT30;53139;45.576;5.304;2022-08-30T12:40:14;32.22;52.95
66337;SHT30;53139;45.576;5.304;2022-08-30T12:43:38;32.70;51.98
66337;SHT30;53139;45.576;5.304;2022-08-30T12:46:49;32.74;51.89
66337;SHT30;53139;45.576;5.304;2022-08-30T12:49:54;33.59;50.41
66337;SHT30;53139;45.576;5.304;2022-08-30T12:53:06;34.65;48.06
66337;SHT30;53139;45.576;5.304;2022-08-30T12:56:10;33.97;47.17
66337;SHT30;53139;45.576;5.304;2022-08-30T12:59:38;32.31;49.71
66337;SHT30;53139;45.576;5.304;2022-08-30T13:02:50;33.55;49.26
66337;SHT30;53139;45.576;5.304;2022-08-30T13:05:51;32.67;49.13
66337;SHT30;53139;45.576;5.304;2022-08-30T13:08:56;30.53;51.46
66337;SHT30;53139;45.576;5.304;2022-08-30T13:12:01;31.37;51.61
66337;SHT30;53139;45.576;5.304;2022-08-30T13:15:32;31.87;50.54
66337;SHT30;53139;45.576;5.304;2022-08-30T13:18:37;34.71;45.99
66337;SHT30;53139;45.576;5.304;2022-08-30T13:21:51;35.65;44.50
66337;SHT30;53139;45.576;5.304;2022-08-30T13:24:55;35.02;44.20
66337;SHT30;53139;45.576;5.304;2022-08-30T13:27:56;35.26;45.09
66337;SHT30;53139;45.576;5.304;2022-08-30T13:30:57;34.28;41.26
66337;SHT30;53139;45.576;5.304;2022-08-30T13:33:58;33.49;41.82
66337;SHT30;53139;45.576;5.304;2022-08-30T13:36:59;32.19;42.73
66337;SHT30;53139;45.576;5.304;2022-08-30T13:40:00;34.13;42.08
66337;SHT30;53139;45.576;5.304;2022-08-30T13:43:03;32.94;43.25
66337;SHT30;53139;45.576;5.304;2022-08-30T13:46:04;33.96;43.75
66337;SHT30;53139;45.576;5.304;2022-08-30T13:49:07;34.96;39.90
66337;SHT30;53139;45.576;5.304;2022-08-30T13:52:16;33.72;42.57
66337;SHT30;53139;45.576;5.304;2022-08-30T13:55:17;32.88;43.31
66337;SHT30;53139;45.576;5.304;2022-08-30T13:58:18;35.06;42.34
66337;SHT30;53139;45.576;5.304;2022-08-30T14:01:19;33.24;43.17
66337;SHT30;53139;45.576;5.304;2022-08-30T14:04:20;30.77;46.65
66337;SHT30;53139;45.576;5.304;2022-08-30T14:07:21;31.57;44.24
66337;SHT30;53139;45.576;5.304;2022-08-30T14:10:27;31.22;45.75
66337;SHT30;53139;45.576;5.304;2022-08-30T14:13:28;30.87;46.68
66337;SHT30;53139;45.576;5.304;2022-08-30T14:16:31;33.00;44.14
66337;SHT30;53139;45.576;5.304;2022-08-30T14:19:31;31.36;45.06
66337;SHT30;53139;45.576;5.304;2022-08-30T14:22:32;31.60;45.27
66337;SHT30;53139;45.576;5.304;2022-08-30T14:25:33;31.01;45.03
66337;SHT30;53139;45.576;5.304;2022-08-30T14:28:34;30.94;46.64
66337;SHT30;53139;45.576;5.304;2022-08-30T14:31:36;30.12;48.00
66337;SHT30;53139;45.576;5.304;2022-08-30T14:34:37;31.33;47.71
66337;SHT30;53139;45.576;5.304;2022-08-30T14:37:40;31.18;47.15
66337;SHT30;53139;45.576;5.304;2022-08-30T14:40:41;31.66;48.42
66337;SHT30;53139;45.576;5.304;2022-08-30T14:43:42;31.30;48.10
66337;SHT30;53139;45.576;5.304;2022-08-30T14:46:44;30.35;49.48
66337;SHT30;53139;45.576;5.304;2022-08-30T14:49:45;30.06;50.77
66337;SHT30;53139;45.576;5.304;2022-08-30T14:52:47;30.35;50.41
66337;SHT30;53139;45.576;5.304;2022-08-30T14:55:50;30.13;50.75
66337;SHT30;53139;45.576;5.304;2022-08-30T14:58:52;30.43;50.34
66337;SHT30;53139;45.576;5.304;2022-08-30T15:01:53;30.41;50.48
66337;SHT30;53139;45.576;5.304;2022-08-30T15:04:57;30.16;50.95
66337;SHT30;53139;45.576;5.304;2022-08-30T15:08:00;29.57;53.35
66337;SHT30;53139;45.576;5.304;2022-08-30T15:11:09;29.77;53.33
66337;SHT30;53139;45.576;5.304;2022-08-30T15:14:10;30.67;52.12
66337;SHT30;53139;45.576;5.304;2022-08-30T15:17:11;31.03;52.47
66337;SHT30;53139;45.576;5.304;2022-08-30T15:20:13;31.87;50.29
66337;SHT30;53139;45.576;5.304;2022-08-30T15:23:16;30.57;51.52
66337;SHT30;53139;45.576;5.304;2022-08-30T15:26:17;31.57;50.30
66337;SHT30;53139;45.576;5.304;2022-08-30T15:29:19;30.57;51.12
66337;SHT30;53139;45.576;5.304;2022-08-30T15:32:20;29.61;53.37
66337;SHT30;53139;45.576;5.304;2022-08-30T15:35:21;29.56;54.45
66337;SHT30;53139;45.576;5.304;2022-08-30T15:38:24;29.23;54.50
66337;SHT30;53139;45.576;5.304;2022-08-30T15:41:27;28.82;55.00
66337;SHT30;53139;45.576;5.304;2022-08-30T15:44:31;28.72;55.29
66337;SHT30;53139;45.576;5.304;2022-08-30T15:47:34;28.46;55.81
66337;SHT30;53139;45.576;5.304;2022-08-30T15:50:35;27.82;57.23
66337;SHT30;53139;45.576;5.304;2022-08-30T15:53:38;27.59;57.91
66337;SHT30;53139;45.576;5.304;2022-08-30T15:56:39;27.61;58.15
66337;SHT30;53139;45.576;5.304;2022-08-30T15:59:40;27.81;57.36
66337;SHT30;53139;45.576;5.304;2022-08-30T16:02:42;27.36;58.39
66337;SHT30;53139;45.576;5.304;2022-08-30T16:05:43;27.17;58.67
66337;SHT30;53139;45.576;5.304;2022-08-30T16:08:44;27.20;60.62
66337;SHT30;53139;45.576;5.304;2022-08-30T16:11:47;26.47;62.09
66337;SHT30;53139;45.576;5.304;2022-08-30T16:14:47;26.24;63.84
66337;SHT30;53139;45.576;5.304;2022-08-30T16:17:48;25.48;66.74
66337;SHT30;53139;45.576;5.304;2022-08-30T16:24:07;25.64;66.36
66337;SHT30;53139;45.576;5.304;2022-08-30T16:27:10;26.00;65.87
66337;SHT30;53139;45.576;5.304;2022-08-30T16:30:13;25.23;68.49
66337;SHT30;53139;45.576;5.304;2022-08-30T16:33:15;25.31;68.52
66337;SHT30;53139;45.576;5.304;2022-08-30T16:36:19;25.21;69.35
66337;SHT30;53139;45.576;5.304;2022-08-30T16:39:22;23.52;72.26
66337;SHT30;53139;45.576;5.304;2022-08-30T16:42:24;21.18;88.97
66337;SHT30;53139;45.576;5.304;2022-08-30T16:45:27;19.71;92.08
66337;SHT30;53139;45.576;5.304;2022-08-30T16:48:30;19.53;91.62
66337;SHT30;53139;45.576;5.304;2022-08-30T16:51:34;20.36;91.95
66337;SHT30;53139;45.576;5.304;2022-08-30T16:54:37;21.00;92.30
66337;SHT30;53139;45.576;5.304;2022-08-30T16:57:39;20.93;92.86
66337;SHT30;53139;45.576;5.304;2022-08-30T17:00:42;21.83;92.88
66337;SHT30;53139;45.576;5.304;2022-08-30T17:03:49;24.03;93.03
66337;SHT30;53139;45.576;5.304;2022-08-30T17:06:51;23.72;93.33
66337;SHT30;53139;45.576;5.304;2022-08-30T17:09:52;29.06;93.13
66337;SHT30;53139;45.576;5.304;2022-08-30T17:12:54;26.24;93.86
66337;SHT30;53139;45.576;5.304;2022-08-30T17:15:57;30.85;94.55
66337;SHT30;53139;45.576;5.304;2022-08-30T17:19:00;32.52;94.34
66337;SHT30;53139;45.576;5.304;2022-08-30T17:22:04;30.39;94.33
66337;SHT30;53139;45.576;5.304;2022-08-30T17:25:07;35.79;94.47
66337;SHT30;53139;45.576;5.304;2022-08-30T17:28:09;36.98;94.69
66337;SHT30;53139;45.576;5.304;2022-08-30T17:31:12;39.45;94.46
66337;SHT30;53139;45.576;5.304;2022-08-30T17:34:14;39.65;75.00
66337;SHT30;53139;45.576;5.304;2022-08-30T17:37:18;42.38;72.82
66337;SHT30;53139;45.576;5.304;2022-08-30T17:40:20;21.41;93.64
66337;SHT30;53139;45.576;5.304;2022-08-30T17:43:21;20.62;94.39
66337;SHT30;53139;45.576;5.304;2022-08-30T17:46:24;21.15;94.76
66337;SHT30;53139;45.576;5.304;2022-08-30T17:49:27;20.83;93.97
66337;SHT30;53139;45.576;5.304;2022-08-30T17:52:30;20.49;96.63
66337;SHT30;53139;45.576;5.304;2022-08-30T17:55:32;20.62;96.37
66337;SHT30;53139;45.576;5.304;2022-08-30T17:58:35;20.62;96.76
66337;SHT30;53139;45.576;5.304;2022-08-30T18:01:37;20.17;96.07
66337;SHT30;53139;45.576;5.304;2022-08-30T18:04:41;19.74;95.10
66337;SHT30;53139;45.576;5.304;2022-08-30T18:07:44;19.59;96.74
66337;SHT30;53139;45.576;5.304;2022-08-30T18:10:47;19.47;97.56
66337;SHT30;53139;45.576;5.304;2022-08-30T18:13:49;19.42;98.27
66337;SHT30;53139;45.576;5.304;2022-08-30T18:16:51;19.50;98.49
66337;SHT30;53139;45.576;5.304;2022-08-30T18:19:54;19.47;98.88
66337;SHT30;53139;45.576;5.304;2022-08-30T18:22:57;19.11;98.50
66337;SHT30;53139;45.576;5.304;2022-08-30T18:26:00;19.25;98.96
66337;SHT30;53139;45.576;5.304;2022-08-30T18:29:03;19.09;98.66
66337;SHT30;53139;45.576;5.304;2022-08-30T18:32:06;19.11;98.69
66337;SHT30;53139;45.576;5.304;2022-08-30T18:35:08;19.20;99.01
66337;SHT30;53139;45.576;5.304;2022-08-30T18:38:11;19.02;98.97
66337;SHT30;53139;45.576;5.304;2022-08-30T18:41:14;18.94;99.08
66337;SHT30;53139;45.576;5.304;2022-08-30T18:44:16;18.84;99.08
66337;SHT30;53139;45.576;5.304;2022-08-30T18:47:19;18.85;99.46
66337;SHT30;53139;45.576;5.304;2022-08-30T18:50:23;18.75;98.88
66337;SHT30;53139;45.576;5.304;2022-08-30T18:53:26;18.91;99.51
66337;SHT30;53139;45.576;5.304;2022-08-30T18:56:29;18.95;99.09
66337;SHT30;53139;45.576;5.304;2022-08-30T18:59:32;19.01;99.19
66337;SHT30;53139;45.576;5.304;2022-08-30T19:02:34;18.97;99.42
66337;SHT30;53139;45.576;5.304;2022-08-30T19:05:37;19.14;99.31
66337;SHT30;53139;45.576;5.304;2022-08-30T19:08:40;19.00;99.18
66337;SHT30;53139;45.576;5.304;2022-08-30T19:11:43;19.01;99.40
66337;SHT30;53139;45.576;5.304;2022-08-30T19:14:45;19.00;98.95
66337;SHT30;53139;45.576;5.304;2022-08-30T19:17:48;18.94;98.80
66337;SHT30;53139;45.576;5.304;2022-08-30T19:20:50;18.95;99.17
66337;SHT30;53139;45.576;5.304;2022-08-30T19:23:53;18.92;99.12
66337;SHT30;53139;45.576;5.304;2022-08-30T19:26:55;18.94;99.27
66337;SHT30;53139;45.576;5.304;2022-08-30T19:29:59;18.87;99.08
66337;SHT30;53139;45.576;5.304;2022-08-30T19:33:01;18.88;99.26
66337;SHT30;53139;45.576;5.304;2022-08-30T19:36:04;18.83;98.84
66337;SHT30;53139;45.576;5.304;2022-08-30T19:39:05;18.85;99.02
66337;SHT30;53139;45.576;5.304;2022-08-30T19:42:06;18.94;98.74
66337;SHT30;53139;45.576;5.304;2022-08-30T19:45:08;18.95;98.92
66337;SHT30;53139;45.576;5.304;2022-08-30T19:48:11;19.00;99.03
66337;SHT30;53139;45.576;5.304;2022-08-30T19:51:13;18.98;98.84
66337;SHT30;53139;45.576;5.304;2022-08-30T19:54:14;18.97;99.09
66337;SHT30;53139;45.576;5.304;2022-08-30T19:57:14;18.91;98.97
66337;SHT30;53139;45.576;5.304;2022-08-30T20:00:16;18.98;99.36
66337;SHT30;53139;45.576;5.304;2022-08-30T20:03:17;18.98;99.70
66337;SHT30;53139;45.576;5.304;2022-08-30T20:06:18;18.84;99.65
66337;SHT30;53139;45.576;5.304;2022-08-30T20:09:19;18.80;99.99
66337;SHT30;53139;45.576;5.304;2022-08-30T20:12:21;18.80;99.99
66337;SHT30;53139;45.576;5.304;2022-08-30T20:15:22;18.84;99.99
66337;SHT30;53139;45.576;5.304;2022-08-30T20:18:26;18.78;99.99
66337;SHT30;53139;45.576;5.304;2022-08-30T20:21:27;18.90;99.99
66337;SHT30;53139;45.576;5.304;2022-08-30T20:24:28;18.81;99.99
66337;SHT30;53139;45.576;5.304;2022-08-30T20:27:29;18.80;99.99
66337;SHT30;53139;45.576;5.304;2022-08-30T20:30:31;18.80;99.99
66337;SHT30;53139;45.576;5.304;2022-08-30T20:33:34;18.85;99.99
66337;SHT30;53139;45.576;5.304;2022-08-30T20:36:38;18.74;99.99
66337;SHT30;53139;45.576;5.304;2022-08-30T20:39:39;18.71;99.99
66337;SHT30;53139;45.576;5.304;2022-08-30T20:42:41;18.70;99.99
66337;SHT30;53139;45.576;5.304;2022-08-30T20:45:46;18.52;99.99
66337;SHT30;53139;45.576;5.304;2022-08-30T20:48:47;18.52;99.99
66337;SHT30;53139;45.576;5.304;2022-08-30T20:51:49;18.49;99.99
66337;SHT30;53139;45.576;5.304;2022-08-30T20:54:53;18.36;99.81